createdAt,value
2023-03-17T00:00:17.627Z,1028.04
2023-03-17T00:02:45.482Z,1027.93
2023-03-17T00:05:24.106Z,1027.91
2023-03-17T00:07:52.818Z,1027.93
2023-03-17T00:10:22.267Z,1027.88
2023-03-17T00:12:53.032Z,1028.04
2023-03-17T00:15:20.945Z,1028.04
2023-03-17T00:17:49.014Z,1027.93
2023-03-17T00:20:25.579Z,1027.98
2023-03-17T00:22:52.803Z,1027.97
2023-03-17T00:25:23.069Z,1027.99
2023-03-17T00:27:51.577Z,1027.95
2023-03-17T00:30:19.225Z,1027.94
2023-03-17T00:32:46.110Z,1027.88
2023-03-17T00:35:18.351Z,1027.87
2023-03-17T00:37:45.299Z,1027.86
2023-03-17T00:40:16.763Z,1027.86
2023-03-17T00:42:43.599Z,1027.91
2023-03-17T00:45:12.586Z,1027.97
2023-03-17T00:47:39.514Z,1028.05
2023-03-17T00:50:10.261Z,1028.00
2023-03-17T00:52:37.057Z,1027.97
2023-03-17T00:55:04.395Z,1028.03
2023-03-17T00:57:31.253Z,1028.07
2023-03-17T00:59:58.129Z,1028.06
2023-03-17T01:02:26.360Z,1028.14
2023-03-17T01:05:05.485Z,1028.13
2023-03-17T01:07:32.844Z,1028.18
2023-03-17T01:09:59.644Z,1028.17
2023-03-17T01:12:26.632Z,1028.05
2023-03-17T01:14:53.549Z,1027.92
2023-03-17T01:17:21.063Z,1027.98
2023-03-17T01:19:49.274Z,1027.90
2023-03-17T01:22:16.075Z,1027.98
2023-03-17T01:24:42.880Z,1027.91
2023-03-17T01:27:10.005Z,1027.85
2023-03-17T01:29:36.763Z,1027.89
2023-03-17T01:32:03.721Z,1027.87
2023-03-17T01:34:30.482Z,1027.83
2023-03-17T01:36:58.691Z,1027.83
2023-03-17T01:39:25.482Z,1027.86
2023-03-17T01:41:52.226Z,1027.93
2023-03-17T01:44:19.250Z,1027.96
2023-03-17T01:46:46.074Z,1027.94
2023-03-17T01:49:18.765Z,1027.90
2023-03-17T01:51:54.553Z,1027.85
2023-03-17T01:54:28.677Z,1027.79
2023-03-17T01:56:58.654Z,1027.79
2023-03-17T01:59:30.732Z,1027.73
2023-03-17T02:02:02.520Z,1027.68
2023-03-17T02:04:30.209Z,1027.60
2023-03-17T02:06:58.637Z,1027.61
2023-03-17T02:09:28.298Z,1027.61
2023-03-17T02:11:56.812Z,1027.67
2023-03-17T02:14:23.594Z,1027.58
2023-03-17T02:16:50.497Z,1027.47
2023-03-17T02:19:17.351Z,1027.53
2023-03-17T02:21:47.095Z,1027.49
2023-03-17T02:24:22.341Z,1027.48
2023-03-17T02:26:51.628Z,1027.44
2023-03-17T02:29:20.241Z,1027.44
2023-03-17T02:31:47.028Z,1027.44
2023-03-17T02:34:13.784Z,1027.50
2023-03-17T02:36:40.513Z,1027.47
2023-03-17T02:39:08.762Z,1027.52
2023-03-17T02:41:36.087Z,1027.60
2023-03-17T02:44:02.943Z,1027.60
2023-03-17T02:46:29.764Z,1027.67
2023-03-17T02:48:56.698Z,1027.63
2023-03-17T02:51:23.987Z,1027.73
2023-03-17T02:53:50.721Z,1027.70
2023-03-17T02:56:18.904Z,1027.66
2023-03-17T02:58:45.701Z,1027.68
2023-03-17T03:01:12.596Z,1027.62
2023-03-17T03:03:39.405Z,1027.67
2023-03-17T03:06:06.774Z,1027.79
2023-03-17T03:08:33.525Z,1027.77
2023-03-17T03:11:00.326Z,1027.73
2023-03-17T03:13:28.432Z,1027.77
2023-03-17T03:15:55.198Z,1027.76
2023-03-17T03:18:21.958Z,1027.69
2023-03-17T03:20:48.745Z,1027.73
2023-03-17T03:23:15.620Z,1027.76
2023-03-17T03:25:42.637Z,1027.81
2023-03-17T03:28:09.717Z,1027.73
2023-03-17T03:30:38.243Z,1027.83
2023-03-17T03:33:05.705Z,1027.93
2023-03-17T03:35:32.859Z,1027.88
2023-03-17T03:37:59.750Z,1027.94
2023-03-17T03:40:26.527Z,1028.03
2023-03-17T03:42:53.284Z,1027.98
2023-03-17T03:45:20.265Z,1027.97
2023-03-17T03:47:48.426Z,1027.89
2023-03-17T03:50:15.389Z,1027.92
2023-03-17T03:52:42.134Z,1027.93
2023-03-17T03:55:09.511Z,1027.79
2023-03-17T03:57:36.550Z,1027.88
2023-03-17T04:00:03.997Z,1027.89
2023-03-17T04:02:30.811Z,1027.90
2023-03-17T04:04:59.088Z,1027.87
2023-03-17T04:07:25.867Z,1027.93
2023-03-17T04:09:52.639Z,1027.94
2023-03-17T04:12:19.752Z,1027.86
2023-03-17T04:14:46.553Z,1027.96
2023-03-17T04:17:14.256Z,1027.95
2023-03-17T04:19:41.045Z,1027.95
2023-03-17T04:22:11.912Z,1027.93
2023-03-17T04:24:38.831Z,1027.87
2023-03-17T04:27:06.303Z,1027.85
2023-03-17T04:29:33.349Z,1027.84
2023-03-17T04:32:00.127Z,1027.85
2023-03-17T04:34:26.895Z,1027.85
2023-03-17T04:36:53.800Z,1027.83
2023-03-17T04:39:21.920Z,1027.81
2023-03-17T04:41:48.736Z,1027.89
2023-03-17T04:44:15.453Z,1027.94
2023-03-17T04:46:42.250Z,1027.93
2023-03-17T04:49:09.119Z,1027.90
2023-03-17T04:51:36.123Z,1028.03
2023-03-17T04:54:03.133Z,1027.88
2023-03-17T04:56:32.094Z,1027.81
2023-03-17T04:58:59.148Z,1027.79
2023-03-17T05:01:26.286Z,1027.69
2023-03-17T05:03:53.123Z,1027.65
2023-03-17T05:06:20.075Z,1027.67
2023-03-17T05:08:46.861Z,1027.66
2023-03-17T05:11:14.950Z,1027.60
2023-03-17T05:13:43.152Z,1027.69
2023-03-17T05:16:10.749Z,1027.70
2023-03-17T05:18:38.101Z,1027.80
2023-03-17T05:21:05.622Z,1027.86
2023-03-17T05:23:32.804Z,1027.83
2023-03-17T05:25:59.596Z,1027.84
2023-03-17T05:28:26.782Z,1027.73
2023-03-17T05:30:55.500Z,1027.79
2023-03-17T05:33:22.395Z,1027.86
2023-03-17T05:35:49.224Z,1027.87
2023-03-17T05:38:16.708Z,1027.86
2023-03-17T05:40:43.901Z,1027.86
2023-03-17T05:43:10.788Z,1027.97
2023-03-17T05:45:37.900Z,1027.94
2023-03-17T05:48:06.239Z,1027.98
2023-03-17T05:50:33.439Z,1027.92
2023-03-17T05:53:00.212Z,1027.80
2023-03-17T05:55:27.006Z,1027.77
2023-03-17T05:57:53.818Z,1027.81
2023-03-17T06:00:21.309Z,1027.70
2023-03-17T06:02:48.038Z,1027.65
2023-03-17T06:05:16.298Z,1027.68
2023-03-17T06:07:53.033Z,1027.58
2023-03-17T06:10:22.245Z,1027.55
2023-03-17T06:12:49.096Z,1027.54
2023-03-17T06:15:16.081Z,1027.67
2023-03-17T06:17:43.029Z,1027.66
2023-03-17T06:20:11.041Z,1027.73
2023-03-17T06:22:46.267Z,1027.76
2023-03-17T06:25:18.671Z,1027.75
2023-03-17T06:27:45.532Z,1027.79
2023-03-17T06:30:13.021Z,1027.80
2023-03-17T06:32:39.777Z,1027.73
2023-03-17T06:35:07.496Z,1027.67
2023-03-17T06:37:35.034Z,1027.53
2023-03-17T06:40:03.903Z,1027.51
2023-03-17T06:42:30.809Z,1027.60
2023-03-17T06:44:57.573Z,1027.32
2023-03-17T06:47:26.009Z,1027.09
2023-03-17T06:49:52.909Z,1026.94
2023-03-17T06:52:19.862Z,1026.78
2023-03-17T06:54:46.577Z,1026.63
2023-03-17T06:57:14.776Z,1026.51
2023-03-17T06:59:41.639Z,1026.44
2023-03-17T07:02:09.821Z,1026.17
2023-03-17T07:04:40.204Z,1025.93
2023-03-17T07:07:07.236Z,1025.68
2023-03-17T07:09:34.738Z,1025.58
2023-03-17T07:12:02.131Z,1025.37
2023-03-17T07:14:31.461Z,1025.29
2023-03-17T07:16:58.373Z,1025.17
2023-03-17T07:19:25.746Z,1025.04
2023-03-17T07:21:52.992Z,1024.95
2023-03-17T07:24:19.932Z,1024.86
2023-03-17T07:26:46.809Z,1024.83
2023-03-17T07:29:13.706Z,1024.61
2023-03-17T07:31:42.362Z,1024.55
2023-03-17T07:34:09.167Z,1024.49
2023-03-17T07:36:36.189Z,1024.34
2023-03-17T07:39:03.693Z,1024.31
2023-03-17T07:41:30.607Z,1024.25
2023-03-17T07:43:57.621Z,1024.07
2023-03-17T07:46:25.012Z,1023.93
2023-03-17T07:48:53.351Z,1023.96
2023-03-17T07:51:22.361Z,1023.91
2023-03-17T07:53:49.675Z,1023.81
2023-03-17T07:56:16.980Z,1023.69
2023-03-17T07:58:44.145Z,1023.55
2023-03-17T08:01:10.878Z,1023.47
2023-03-17T08:03:39.971Z,1023.46
2023-03-17T08:06:09.635Z,1023.30
2023-03-17T08:08:36.530Z,1023.25
2023-03-17T08:11:05.120Z,1023.20
2023-03-17T08:13:32.639Z,1023.08
2023-03-17T08:15:59.771Z,1023.05
2023-03-17T08:18:28.512Z,1022.98
2023-03-17T08:20:55.356Z,1022.98
2023-03-17T08:23:23.500Z,1023.01
2023-03-17T08:25:50.486Z,1023.20
2023-03-17T08:28:17.275Z,1023.08
2023-03-17T08:30:44.237Z,1023.07
2023-03-17T08:33:11.305Z,1022.90
2023-03-17T08:35:40.978Z,1022.81
2023-03-17T08:38:08.255Z,1022.81
2023-03-17T08:40:36.766Z,1022.69
2023-03-17T08:43:04.061Z,1022.60
2023-03-17T08:45:31.111Z,1022.57
2023-03-17T08:47:58.519Z,1022.47
2023-03-17T08:50:26.304Z,1022.39
2023-03-17T08:52:53.391Z,1022.53
2023-03-17T08:55:20.433Z,1022.50
2023-03-17T08:57:48.904Z,1022.50
2023-03-17T09:00:17.971Z,1022.55
2023-03-17T09:02:44.951Z,1022.45
2023-03-17T09:05:13.042Z,1022.46
2023-03-17T09:07:40.182Z,1022.50
2023-03-17T09:10:09.704Z,1022.41
2023-03-17T09:12:37.401Z,1022.29
2023-03-17T09:15:06.962Z,1022.21
2023-03-17T09:17:33.753Z,1022.22
2023-03-17T09:20:00.575Z,1022.18
2023-03-17T09:22:27.460Z,1022.06
2023-03-17T09:24:54.194Z,1021.94
2023-03-17T09:27:20.931Z,1021.93
2023-03-17T09:29:47.766Z,1021.89
2023-03-17T09:32:16.178Z,1021.69
2023-03-17T09:34:43.132Z,1021.93
2023-03-17T09:37:10.016Z,1021.78
2023-03-17T09:39:36.875Z,1021.76
2023-03-17T09:42:17.254Z,1021.74
2023-03-17T09:45:11.083Z,1021.64
2023-03-17T09:47:53.168Z,1021.58
2023-03-17T09:50:25.270Z,1021.62
2023-03-17T09:52:55.100Z,1021.55
2023-03-17T09:55:26.700Z,1021.51
2023-03-17T09:57:55.200Z,1021.40
2023-03-17T10:00:23.157Z,1021.40
2023-03-17T10:02:52.674Z,1021.22
2023-03-17T10:05:22.308Z,1021.23
2023-03-17T10:07:55.635Z,1021.22
2023-03-17T10:10:29.848Z,1021.14
2023-03-17T10:13:02.958Z,1021.07
2023-03-17T10:15:35.774Z,1021.07
2023-03-17T10:18:09.658Z,1021.04
2023-03-17T10:20:44.461Z,1021.02
2023-03-17T10:23:15.507Z,1021.00
2023-03-17T10:25:42.264Z,1020.88
2023-03-17T10:28:23.337Z,1020.88
2023-03-17T10:30:50.320Z,1020.87
2023-03-17T10:33:19.020Z,1020.71
2023-03-17T10:35:46.128Z,1020.73
2023-03-17T10:38:17.718Z,1020.78
2023-03-17T10:40:46.569Z,1020.75
2023-03-17T10:43:18.725Z,1020.63
2023-03-17T10:45:54.926Z,1020.42
2023-03-17T10:48:23.215Z,1020.44
2023-03-17T10:50:50.492Z,1020.29
2023-03-17T10:53:21.187Z,1020.22
2023-03-17T10:55:50.479Z,1020.06
2023-03-17T10:58:19.698Z,1019.95
2023-03-17T11:00:55.708Z,1019.83
2023-03-17T11:03:27.297Z,1019.81
2023-03-17T11:06:01.340Z,1019.88
2023-03-17T11:08:32.446Z,1019.82
2023-03-17T11:10:59.340Z,1019.66
2023-03-17T11:13:29.592Z,1019.70
2023-03-17T11:16:07.881Z,1019.58
2023-03-17T11:18:38.384Z,1019.65
2023-03-17T11:21:09.444Z,1019.45
2023-03-17T11:23:50.244Z,1019.37
2023-03-17T11:26:48.343Z,1019.33
2023-03-17T11:29:22.704Z,1019.19
2023-03-17T11:31:55.749Z,1019.08
2023-03-17T11:34:36.741Z,1019.03
2023-03-17T11:37:15.157Z,1019.01
2023-03-17T11:39:49.964Z,1018.88
2023-03-17T11:42:22.669Z,1018.77
2023-03-17T11:45:15.081Z,1018.72
2023-03-17T11:48:01.377Z,1018.61
2023-03-17T11:50:34.778Z,1018.55
2023-03-17T11:53:21.212Z,1018.47
2023-03-17T11:55:51.340Z,1018.41
2023-03-17T11:58:28.047Z,1018.34
2023-03-17T12:00:58.480Z,1018.19
2023-03-17T12:03:35.705Z,1018.17
2023-03-17T12:06:11.328Z,1018.01
2023-03-17T12:08:42.590Z,1017.98
2023-03-17T12:11:13.031Z,1017.77
2023-03-17T12:13:45.324Z,1017.65
2023-03-17T12:16:19.396Z,1017.65
2023-03-17T12:18:56.225Z,1017.61
2023-03-17T12:21:30.976Z,1017.53
2023-03-17T12:24:02.681Z,1017.53
2023-03-17T12:26:36.871Z,1017.47
2023-03-17T12:29:10.070Z,1017.59
2023-03-17T12:31:41.313Z,1017.61
2023-03-17T12:34:15.147Z,1017.58
2023-03-17T12:36:44.666Z,1017.56
2023-03-17T12:39:14.556Z,1017.60
2023-03-17T12:42:04.707Z,1017.57
2023-03-17T12:44:44.702Z,1017.54
2023-03-17T12:47:33.414Z,1017.41
2023-03-17T12:50:14.572Z,1017.42
2023-03-17T12:53:06.460Z,1017.44
2023-03-17T12:55:34.560Z,1017.34
2023-03-17T12:58:03.586Z,1017.30
2023-03-17T13:00:32.386Z,1017.39
2023-03-17T13:03:19.010Z,1017.30
2023-03-17T13:05:49.535Z,1017.30
2023-03-17T13:08:24.291Z,1017.28
2023-03-17T13:10:51.217Z,1017.23
2023-03-17T13:13:40.347Z,1017.26
2023-03-17T13:16:26.889Z,1017.29
2023-03-17T13:19:17.264Z,1017.24
2023-03-17T13:21:45.588Z,1017.24
2023-03-17T13:24:40.348Z,1017.22
2023-03-17T13:27:11.208Z,1017.07
2023-03-17T13:29:41.291Z,1017.09
2023-03-17T13:32:33.889Z,1017.00
2023-03-17T13:35:19.341Z,1016.97
2023-03-17T13:38:19.440Z,1017.06
2023-03-17T13:41:01.848Z,1016.96
2023-03-17T13:43:49.650Z,1016.96
2023-03-17T13:46:25.608Z,1016.98
2023-03-17T13:48:54.952Z,1016.99
2023-03-17T13:51:23.837Z,1016.87
2023-03-17T13:53:54.816Z,1016.92
2023-03-17T13:56:45.988Z,1016.87
2023-03-17T13:59:14.413Z,1016.84
2023-03-17T14:01:47.249Z,1016.78
2023-03-17T14:04:20.586Z,1016.80
2023-03-17T14:06:51.931Z,1016.87
2023-03-17T14:09:32.399Z,1016.76
2023-03-17T14:12:05.341Z,1016.85
2023-03-17T14:14:41.045Z,1016.84
2023-03-17T14:17:14.292Z,1016.86
2023-03-17T14:19:41.627Z,1016.93
2023-03-17T14:22:22.984Z,1017.00
2023-03-17T14:24:53.638Z,1017.00
2023-03-17T14:27:22.773Z,1016.95
2023-03-17T14:29:50.355Z,1016.96
2023-03-17T14:32:19.589Z,1016.97
2023-03-17T14:34:47.996Z,1016.98
2023-03-17T14:37:15.690Z,1017.02
2023-03-17T14:39:47.643Z,1017.02
2023-03-17T14:42:17.361Z,1017.01
2023-03-17T14:44:45.592Z,1016.98
2023-03-17T14:47:18.025Z,1016.94
2023-03-17T14:49:45.011Z,1016.95
2023-03-17T14:52:20.371Z,1016.96
2023-03-17T14:54:51.175Z,1016.89
2023-03-17T14:57:21.271Z,1016.92
2023-03-17T14:59:58.505Z,1016.94
2023-03-17T15:02:30.926Z,1016.92
2023-03-17T15:05:01.685Z,1016.90
2023-03-17T15:07:31.890Z,1016.81
2023-03-17T15:10:00.189Z,1016.78
2023-03-17T15:12:27.986Z,1016.78
2023-03-17T15:15:00.143Z,1016.76
2023-03-17T15:17:30.442Z,1016.81
2023-03-17T15:20:01.425Z,1016.84
2023-03-17T15:22:31.344Z,1016.83
2023-03-17T15:25:03.102Z,1016.79
2023-03-17T15:27:31.723Z,1016.75
2023-03-17T15:30:00.317Z,1016.67
2023-03-17T15:32:28.848Z,1016.72
2023-03-17T15:34:56.395Z,1016.70
2023-03-17T15:37:25.274Z,1016.68
2023-03-17T15:39:52.790Z,1016.71
2023-03-17T15:42:21.445Z,1016.80
2023-03-17T15:44:48.217Z,1016.74
2023-03-17T15:47:18.477Z,1016.83
2023-03-17T15:49:46.717Z,1016.94
2023-03-17T15:52:16.278Z,1016.93
2023-03-17T15:54:44.576Z,1017.03
2023-03-17T15:57:11.791Z,1017.05
2023-03-17T15:59:38.959Z,1017.13
2023-03-17T16:02:24.716Z,1017.23
2023-03-17T16:04:52.070Z,1017.24
2023-03-17T16:07:19.135Z,1017.24
2023-03-17T16:09:45.933Z,1017.27
2023-03-17T16:12:13.211Z,1017.26
2023-03-17T16:14:40.156Z,1017.33
2023-03-17T16:17:10.218Z,1017.32
2023-03-17T16:19:38.414Z,1017.45
2023-03-17T16:22:05.866Z,1017.50
2023-03-17T16:24:32.610Z,1017.48
2023-03-17T16:26:59.357Z,1017.52
2023-03-17T16:47:45.143Z,1017.95
2023-03-17T16:50:16.804Z,1018.04
2023-03-17T16:52:43.616Z,1018.18
2023-03-17T16:55:10.777Z,1018.27
2023-03-17T16:57:38.869Z,1018.17
2023-03-17T17:00:07.660Z,1018.30
2023-03-17T17:02:37.495Z,1018.44
2023-03-17T17:05:13.505Z,1018.56
2023-03-17T17:07:43.001Z,1018.72
2023-03-17T17:10:12.301Z,1018.86
2023-03-17T17:12:40.417Z,1019.02
2023-03-17T17:15:08.901Z,1019.12
2023-03-17T17:17:38.131Z,1019.33
2023-03-17T17:20:13.860Z,1019.41
2023-03-17T17:22:40.672Z,1019.47
2023-03-17T17:25:08.195Z,1019.61
2023-03-17T17:27:35.170Z,1019.55
2023-03-17T17:30:01.996Z,1019.66
2023-03-17T17:32:28.768Z,1019.71
2023-03-17T17:34:55.612Z,1019.73
2023-03-17T17:37:24.125Z,1019.77
2023-03-17T17:39:50.892Z,1019.94
2023-03-17T17:42:17.627Z,1019.87
2023-03-17T17:44:44.392Z,1019.93
2023-03-17T17:47:11.221Z,1019.88
2023-03-17T17:49:38.211Z,1019.92
2023-03-17T17:52:05.290Z,1019.89
2023-03-17T17:54:33.539Z,1019.99
2023-03-17T17:57:00.608Z,1020.01
2023-03-17T17:59:27.638Z,1020.00
2023-03-17T18:01:55.539Z,1020.16
2023-03-17T18:04:22.453Z,1020.20
2023-03-17T18:06:49.217Z,1020.26
2023-03-17T18:09:15.924Z,1020.23
2023-03-17T18:11:44.248Z,1020.21
2023-03-17T18:14:11.458Z,1020.15
2023-03-17T18:16:38.615Z,1020.24
2023-03-17T18:19:06.968Z,1020.28
2023-03-17T18:21:34.937Z,1020.22
2023-03-17T18:24:02.749Z,1020.22
2023-03-17T18:26:29.465Z,1020.24
2023-03-17T18:28:57.660Z,1020.42
2023-03-17T18:31:27.767Z,1020.28
2023-03-17T18:33:58.368Z,1020.26
2023-03-17T18:36:26.105Z,1020.28
2023-03-17T18:38:53.074Z,1020.33
2023-03-17T18:41:19.870Z,1020.29
2023-03-17T18:43:46.586Z,1020.45
2023-03-17T18:46:14.837Z,1020.42
2023-03-17T18:48:41.791Z,1020.33
2023-03-17T18:51:08.706Z,1020.31
2023-03-17T18:53:35.925Z,1020.40
2023-03-17T18:56:02.804Z,1020.42
2023-03-17T18:58:29.584Z,1020.48
2023-03-17T19:00:58.326Z,1020.42
2023-03-17T19:03:26.817Z,1020.46
2023-03-17T19:05:54.201Z,1020.53
2023-03-17T19:08:21.356Z,1020.56
2023-03-17T19:10:48.265Z,1020.43
2023-03-17T19:13:15.728Z,1020.44
2023-03-17T19:15:42.642Z,1020.39
2023-03-17T19:18:09.626Z,1020.42
2023-03-17T19:20:37.790Z,1020.54
2023-03-17T19:23:04.638Z,1020.53
2023-03-17T19:25:31.473Z,1020.53
2023-03-17T19:27:58.260Z,1020.61
2023-03-17T19:30:25.109Z,1020.66
2023-03-17T19:32:51.931Z,1020.60
2023-03-17T19:35:18.815Z,1020.67
2023-03-17T19:37:46.950Z,1020.70
2023-03-17T19:40:13.935Z,1020.71
2023-03-17T19:42:40.827Z,1020.77
2023-03-17T19:45:08.742Z,1020.87
2023-03-17T19:47:35.496Z,1020.91
2023-03-17T19:50:02.283Z,1020.88
2023-03-17T19:52:31.815Z,1020.98
2023-03-17T19:55:00.070Z,1021.02
2023-03-17T19:57:26.933Z,1021.02
2023-03-17T19:59:54.903Z,1021.09
2023-03-17T20:02:21.736Z,1021.13
2023-03-17T20:04:49.042Z,1021.13
2023-03-17T20:07:15.835Z,1021.05
2023-03-17T20:09:44.405Z,1021.04
2023-03-17T20:12:12.627Z,1021.14
2023-03-17T20:14:39.597Z,1021.15
2023-03-17T20:17:06.510Z,1021.13
2023-03-17T20:19:33.629Z,1021.13
2023-03-17T20:22:01.161Z,1021.15
2023-03-17T20:24:31.499Z,1021.11
2023-03-17T20:27:00.879Z,1021.14
2023-03-17T20:29:29.753Z,1021.20
2023-03-17T20:31:57.325Z,1021.17
2023-03-17T20:34:25.059Z,1021.16
2023-03-17T20:36:52.021Z,1021.10
2023-03-17T20:39:23.993Z,1021.13
2023-03-17T20:41:51.528Z,1021.13
2023-03-17T20:44:20.602Z,1021.16
2023-03-17T20:46:53.236Z,1021.27
2023-03-17T20:49:20.642Z,1021.20
2023-03-17T20:51:47.871Z,1021.16
2023-03-17T20:54:14.671Z,1021.19
2023-03-17T20:56:42.778Z,1021.12
2023-03-17T20:59:11.676Z,1021.04
2023-03-17T21:01:38.460Z,1021.16
2023-03-17T21:04:07.173Z,1021.15
2023-03-17T21:06:33.942Z,1021.10
2023-03-17T21:09:00.766Z,1021.03
2023-03-17T21:11:27.529Z,1021.02
2023-03-17T21:13:54.486Z,1020.92
2023-03-17T21:16:23.533Z,1020.98
2023-03-17T21:18:50.819Z,1020.97
2023-03-17T21:21:19.525Z,1021.02
2023-03-17T21:23:46.276Z,1021.08
2023-03-17T21:26:13.984Z,1021.19
2023-03-17T21:28:41.807Z,1021.22
2023-03-17T21:31:09.017Z,1021.21
2023-03-17T21:33:35.776Z,1021.25
2023-03-17T21:36:02.871Z,1021.19
2023-03-17T21:38:31.023Z,1021.20
2023-03-17T21:40:58.186Z,1021.18
2023-03-17T21:43:25.089Z,1021.14
2023-03-17T21:45:51.950Z,1021.14
2023-03-17T21:48:18.755Z,1021.13
2023-03-17T21:50:47.132Z,1021.05
2023-03-17T21:53:13.907Z,1021.04
2023-03-17T21:55:42.124Z,1020.99
2023-03-17T21:58:09.072Z,1021.02
2023-03-17T22:00:44.642Z,1020.99
2023-03-17T22:03:12.660Z,1020.99
2023-03-17T22:05:39.564Z,1020.89
2023-03-17T22:08:06.680Z,1020.96
2023-03-17T22:10:33.629Z,1020.89
2023-03-17T22:13:01.972Z,1020.93
2023-03-17T22:15:28.907Z,1020.96
2023-03-17T22:17:55.885Z,1021.00
2023-03-17T22:20:22.678Z,1021.00
2023-03-17T22:22:49.398Z,1021.04
2023-03-17T22:25:16.334Z,1021.09
2023-03-17T22:27:43.119Z,1021.00
2023-03-17T22:30:12.199Z,1020.96
2023-03-17T22:32:39.087Z,1020.98
2023-03-17T22:35:06.678Z,1020.89
2023-03-17T22:37:33.909Z,1020.97
2023-03-17T22:40:01.530Z,1020.94
2023-03-17T22:42:28.385Z,1020.96
2023-03-17T22:44:55.223Z,1020.83
2023-03-17T22:47:23.704Z,1020.79
2023-03-17T22:49:50.945Z,1020.79
2023-03-17T22:52:18.121Z,1020.81
2023-03-17T22:54:44.910Z,1020.92
2023-03-17T22:57:11.824Z,1020.87
2023-03-17T22:59:38.550Z,1020.86
2023-03-17T23:02:05.513Z,1020.80
2023-03-17T23:04:34.300Z,1020.86
2023-03-17T23:07:01.449Z,1020.64
2023-03-17T23:09:28.266Z,1020.65
2023-03-17T23:11:55.071Z,1020.65
2023-03-17T23:14:21.823Z,1020.66
2023-03-17T23:16:48.798Z,1020.71
2023-03-17T23:19:15.840Z,1020.72
2023-03-17T23:21:44.120Z,1020.67
2023-03-17T23:24:10.989Z,1020.56
2023-03-17T23:26:37.931Z,1020.67
2023-03-17T23:29:06.468Z,1020.60
2023-03-17T23:31:33.245Z,1020.55
2023-03-17T23:34:00.520Z,1020.58
2023-03-17T23:36:27.424Z,1020.59
2023-03-17T23:38:55.948Z,1020.67
2023-03-17T23:41:22.771Z,1020.71
2023-03-17T23:43:49.553Z,1020.78
2023-03-17T23:46:16.404Z,1020.86
2023-03-17T23:48:43.428Z,1020.82
2023-03-17T23:51:10.664Z,1020.78
2023-03-17T23:53:37.436Z,1020.79
2023-03-17T23:56:06.188Z,1020.79
2023-03-17T23:58:33.063Z,1020.72
